This is the latest recevied weather packets stored in our database for station/object KI4MRC. If no packets are shown the sender has not sent any weather packets the latest 10 day(s).
| Time | Temp. | Humidity | Pressure | Rain* | Wind** | Luminosity | Snow |
|---|---|---|---|---|---|---|---|
| 1777564937 | 30.56° C | 56% | 1012.7 hPa | 0 mm | - | 985 W/m² | - |
| 1777564632 | 30.56° C | 57% | 1012.8 hPa | 0 mm | - | 981 W/m² | - |
| 1777564328 | 30.56° C | 58% | 1013 hPa | 0 mm | - | 372 W/m² | - |
| 1777564024 | 30.56° C | 57% | 1012.9 hPa | 0 mm | - | 761 W/m² | - |
| 1777563720 | 30.56° C | 58% | 1012.8 hPa | 0 mm | - | 593 W/m² | - |
| 1777563416 | 31.11° C | 57% | 1013.1 hPa | 0 mm | - | 681 W/m² | - |
| 1777563111 | 31.11° C | 57% | 1013 hPa | 0 mm | - | 882 W/m² | - |
| 1777562807 | 31.11° C | 56% | 1013.1 hPa | 0 mm | - | 827 W/m² | - |
| 1777562505 | 30.56° C | 59% | 1013.2 hPa | 0 mm | - | 860 W/m² | - |
| 1777562202 | 30.56° C | 57% | 1013 hPa | 0 mm | - | 843 W/m² | - |
| 1777561900 | 31.11° C | 54% | 1013.2 hPa | 0 mm | - | 827 W/m² | - |
| 1777561597 | 30.56° C | 59% | 1013.2 hPa | 0 mm | - | 820 W/m² | - |
| 1777561293 | 30.56° C | 59% | 1013.3 hPa | 0 mm | - | 782 W/m² | - |
| 1777560992 | 30° C | 62% | 1013.1 hPa | 0 mm | - | 790 W/m² | - |
| 1777560688 | 30° C | 62% | 1013.2 hPa | 0 mm | - | 769 W/m² | - |
| 1777560386 | 30° C | 64% | 1013.2 hPa | 0 mm | - | 753 W/m² | - |
| 1777560084 | 30° C | 62% | 1013.2 hPa | 0 mm | - | 732 W/m² | - |
| 1777559779 | 30° C | 66% | 1013.4 hPa | 0 mm | - | 719 W/m² | - |
| 1777559477 | 29.44° C | 65% | 1013.3 hPa | 0 mm | - | 701 W/m² | - |
| 1777559174 | 29.44° C | 65% | 1013.2 hPa | 0 mm | - | 683 W/m² | - |
| 1777558873 | 28.89° C | 68% | 1013.1 hPa | 0 mm | - | 661 W/m² | - |
| 1777558569 | 28.89° C | 67% | 1013 hPa | 0 mm | - | 643 W/m² | - |
| 1777558265 | 28.33° C | 70% | 1013 hPa | 0 mm | - | 616 W/m² | - |
| 1777557961 | 27.78° C | 73% | 1013.1 hPa | 0 mm | - | 609 W/m² | - |
| 1777557659 | 27.78° C | 75% | 1012.9 hPa | 0 mm | - | 589 W/m² | - |
* Rain latest hour (hover to see other rain measurements)
** Current wind speed in m/s (hover to see current wind gust speed)